sensor_id;sensor_type;location;lat;lon;timestamp;P1;durP1;ratioP1;P2;durP2;ratioP2
79751;SDS011;69234;47.446;21.636;2023-11-21T00:00:22;18.33;;;17.87;;
79751;SDS011;69234;47.446;21.636;2023-11-21T00:00:53;18.97;;;18.43;;
79751;SDS011;69234;47.446;21.636;2023-11-21T00:01:24;18.87;;;18.30;;
79751;SDS011;69234;47.446;21.636;2023-11-21T00:01:55;19.20;;;18.77;;
79751;SDS011;69234;47.446;21.636;2023-11-21T00:02:27;18.87;;;18.50;;
79751;SDS011;69234;47.446;21.636;2023-11-21T00:02:58;17.70;;;17.40;;
79751;SDS011;69234;47.446;21.636;2023-11-21T00:03:32;18.20;;;17.80;;
79751;SDS011;69234;47.446;21.636;2023-11-21T00:04:03;18.53;;;18.37;;
79751;SDS011;69234;47.446;21.636;2023-11-21T00:04:34;19.57;;;19.20;;
79751;SDS011;69234;47.446;21.636;2023-11-21T00:05:05;18.67;;;18.20;;
79751;SDS011;69234;47.446;21.636;2023-11-21T00:05:40;18.27;;;17.87;;
79751;SDS011;69234;47.446;21.636;2023-11-21T00:06:11;17.97;;;17.60;;
79751;SDS011;69234;47.446;21.636;2023-11-21T00:06:42;18.40;;;18.00;;
79751;SDS011;69234;47.446;21.636;2023-11-21T00:07:16;18.97;;;18.70;;
79751;SDS011;69234;47.446;21.636;2023-11-21T00:07:47;19.00;;;18.80;;
79751;SDS011;69234;47.446;21.636;2023-11-21T00:08:18;18.10;;;17.73;;
79751;SDS011;69234;47.446;21.636;2023-11-21T00:08:49;18.67;;;18.13;;
79751;SDS011;69234;47.446;21.636;2023-11-21T00:09:20;19.87;;;19.23;;
79751;SDS011;69234;47.446;21.636;2023-11-21T00:09:52;19.87;;;19.40;;
79751;SDS011;69234;47.446;21.636;2023-11-21T00:10:26;18.67;;;18.33;;
79751;SDS011;69234;47.446;21.636;2023-11-21T00:10:56;18.27;;;18.20;;
79751;SDS011;69234;47.446;21.636;2023-11-21T00:11:30;18.80;;;18.70;;
79751;SDS011;69234;47.446;21.636;2023-11-21T00:12:01;18.67;;;18.40;;
79751;SDS011;69234;47.446;21.636;2023-11-21T00:12:33;18.33;;;18.33;;
79751;SDS011;69234;47.446;21.636;2023-11-21T00:13:05;18.87;;;18.83;;
79751;SDS011;69234;47.446;21.636;2023-11-21T00:13:36;18.53;;;18.47;;
79751;SDS011;69234;47.446;21.636;2023-11-21T00:14:07;19.57;;;19.30;;
79751;SDS011;69234;47.446;21.636;2023-11-21T00:14:38;18.70;;;18.43;;
79751;SDS011;69234;47.446;21.636;2023-11-21T00:15:09;19.50;;;19.20;;
79751;SDS011;69234;47.446;21.636;2023-11-21T00:15:43;19.80;;;19.53;;
79751;SDS011;69234;47.446;21.636;2023-11-21T00:16:14;20.17;;;19.83;;
79751;SDS011;69234;47.446;21.636;2023-11-21T00:16:45;20.70;;;20.17;;
79751;SDS011;69234;47.446;21.636;2023-11-21T00:17:16;21.23;;;20.67;;
79751;SDS011;69234;47.446;21.636;2023-11-21T00:17:47;21.57;;;21.10;;
79751;SDS011;69234;47.446;21.636;2023-11-21T00:18:18;22.20;;;21.60;;
79751;SDS011;69234;47.446;21.636;2023-11-21T00:19:07;21.87;;;21.20;;
79751;SDS011;69234;47.446;21.636;2023-11-21T00:19:38;21.50;;;21.10;;
79751;SDS011;69234;47.446;21.636;2023-11-21T00:20:09;20.93;;;20.53;;
79751;SDS011;69234;47.446;21.636;2023-11-21T00:20:43;22.03;;;21.57;;
79751;SDS011;69234;47.446;21.636;2023-11-21T00:21:14;22.30;;;21.87;;
79751;SDS011;69234;47.446;21.636;2023-11-21T00:21:45;22.43;;;21.90;;
79751;SDS011;69234;47.446;21.636;2023-11-21T00:22:16;22.20;;;21.60;;
79751;SDS011;69234;47.446;21.636;2023-11-21T00:22:47;21.57;;;21.00;;
79751;SDS011;69234;47.446;21.636;2023-11-21T00:23:18;21.93;;;21.40;;
79751;SDS011;69234;47.446;21.636;2023-11-21T00:23:49;21.63;;;21.07;;
79751;SDS011;69234;47.446;21.636;2023-11-21T00:24:20;22.50;;;22.03;;
79751;SDS011;69234;47.446;21.636;2023-11-21T00:24:51;21.80;;;21.40;;
79751;SDS011;69234;47.446;21.636;2023-11-21T00:25:21;21.13;;;20.77;;
79751;SDS011;69234;47.446;21.636;2023-11-21T00:25:52;21.07;;;20.70;;
79751;SDS011;69234;47.446;21.636;2023-11-21T00:26:23;22.00;;;21.57;;
79751;SDS011;69234;47.446;21.636;2023-11-21T00:27:04;23.07;;;22.40;;
79751;SDS011;69234;47.446;21.636;2023-11-21T00:27:36;22.23;;;21.70;;
79751;SDS011;69234;47.446;21.636;2023-11-21T00:28:07;22.13;;;21.67;;
79751;SDS011;69234;47.446;21.636;2023-11-21T00:28:38;21.47;;;20.97;;
79751;SDS011;69234;47.446;21.636;2023-11-21T00:29:10;21.83;;;21.43;;
79751;SDS011;69234;47.446;21.636;2023-11-21T00:29:41;21.97;;;21.80;;
79751;SDS011;69234;47.446;21.636;2023-11-21T00:30:12;20.80;;;20.57;;
79751;SDS011;69234;47.446;21.636;2023-11-21T00:30:44;21.27;;;21.03;;
79751;SDS011;69234;47.446;21.636;2023-11-21T00:31:15;21.07;;;20.67;;
79751;SDS011;69234;47.446;21.636;2023-11-21T00:31:46;21.27;;;20.90;;
79751;SDS011;69234;47.446;21.636;2023-11-21T00:32:16;20.80;;;20.47;;
79751;SDS011;69234;47.446;21.636;2023-11-21T00:32:47;20.67;;;20.27;;
79751;SDS011;69234;47.446;21.636;2023-11-21T00:33:18;21.40;;;21.23;;
79751;SDS011;69234;47.446;21.636;2023-11-21T00:33:49;21.43;;;21.17;;
79751;SDS011;69234;47.446;21.636;2023-11-21T00:34:20;20.63;;;20.27;;
79751;SDS011;69234;47.446;21.636;2023-11-21T00:34:51;21.13;;;20.83;;
79751;SDS011;69234;47.446;21.636;2023-11-21T00:35:22;19.03;;;18.90;;
79751;SDS011;69234;47.446;21.636;2023-11-21T00:35:53;20.50;;;20.30;;
79751;SDS011;69234;47.446;21.636;2023-11-21T00:36:24;20.90;;;20.53;;
79751;SDS011;69234;47.446;21.636;2023-11-21T00:36:56;20.63;;;20.23;;
79751;SDS011;69234;47.446;21.636;2023-11-21T00:37:27;20.60;;;20.27;;
79751;SDS011;69234;47.446;21.636;2023-11-21T00:37:58;21.23;;;20.93;;
79751;SDS011;69234;47.446;21.636;2023-11-21T00:38:29;19.37;;;19.07;;
79751;SDS011;69234;47.446;21.636;2023-11-21T00:39:02;19.83;;;19.50;;
79751;SDS011;69234;47.446;21.636;2023-11-21T00:39:34;20.00;;;19.63;;
79751;SDS011;69234;47.446;21.636;2023-11-21T00:40:05;20.13;;;19.80;;
79751;SDS011;69234;47.446;21.636;2023-11-21T00:40:38;19.50;;;19.17;;
79751;SDS011;69234;47.446;21.636;2023-11-21T00:41:09;19.60;;;19.20;;
79751;SDS011;69234;47.446;21.636;2023-11-21T00:41:40;19.97;;;19.40;;
79751;SDS011;69234;47.446;21.636;2023-11-21T00:42:12;19.60;;;19.17;;
79751;SDS011;69234;47.446;21.636;2023-11-21T00:42:43;18.87;;;18.57;;
79751;SDS011;69234;47.446;21.636;2023-11-21T00:43:14;19.50;;;19.30;;
79751;SDS011;69234;47.446;21.636;2023-11-21T00:43:45;19.70;;;19.37;;
79751;SDS011;69234;47.446;21.636;2023-11-21T00:44:16;20.70;;;20.23;;
79751;SDS011;69234;47.446;21.636;2023-11-21T00:44:47;21.87;;;21.27;;
79751;SDS011;69234;47.446;21.636;2023-11-21T00:45:18;22.80;;;22.17;;
79751;SDS011;69234;47.446;21.636;2023-11-21T00:45:49;22.67;;;22.10;;
79751;SDS011;69234;47.446;21.636;2023-11-21T00:46:20;22.73;;;21.97;;
79751;SDS011;69234;47.446;21.636;2023-11-21T00:46:52;23.40;;;22.70;;
79751;SDS011;69234;47.446;21.636;2023-11-21T00:47:24;21.70;;;21.20;;
79751;SDS011;69234;47.446;21.636;2023-11-21T00:47:55;22.67;;;22.17;;
79751;SDS011;69234;47.446;21.636;2023-11-21T00:48:26;22.57;;;21.97;;
79751;SDS011;69234;47.446;21.636;2023-11-21T00:48:57;22.63;;;22.07;;
79751;SDS011;69234;47.446;21.636;2023-11-21T00:49:28;24.10;;;23.60;;
79751;SDS011;69234;47.446;21.636;2023-11-21T00:49:59;25.33;;;24.73;;
79751;SDS011;69234;47.446;21.636;2023-11-21T00:50:30;25.43;;;24.87;;
79751;SDS011;69234;47.446;21.636;2023-11-21T00:51:01;24.13;;;23.70;;
79751;SDS011;69234;47.446;21.636;2023-11-21T00:51:32;24.27;;;23.73;;
79751;SDS011;69234;47.446;21.636;2023-11-21T00:52:03;25.43;;;24.77;;
79751;SDS011;69234;47.446;21.636;2023-11-21T00:52:35;24.07;;;23.33;;
79751;SDS011;69234;47.446;21.636;2023-11-21T00:53:06;24.93;;;24.13;;
79751;SDS011;69234;47.446;21.636;2023-11-21T00:53:41;24.00;;;23.47;;
79751;SDS011;69234;47.446;21.636;2023-11-21T00:54:12;23.87;;;23.27;;
79751;SDS011;69234;47.446;21.636;2023-11-21T00:54:43;25.33;;;24.50;;
79751;SDS011;69234;47.446;21.636;2023-11-21T00:55:15;24.53;;;23.83;;
79751;SDS011;69234;47.446;21.636;2023-11-21T00:55:47;23.70;;;23.13;;
79751;SDS011;69234;47.446;21.636;2023-11-21T00:56:18;23.43;;;22.97;;
79751;SDS011;69234;47.446;21.636;2023-11-21T00:56:49;23.10;;;22.63;;
79751;SDS011;69234;47.446;21.636;2023-11-21T00:57:20;24.67;;;24.30;;
79751;SDS011;69234;47.446;21.636;2023-11-21T00:57:51;24.27;;;23.90;;
79751;SDS011;69234;47.446;21.636;2023-11-21T00:58:25;23.57;;;23.13;;
79751;SDS011;69234;47.446;21.636;2023-11-21T00:58:57;23.23;;;22.67;;
79751;SDS011;69234;47.446;21.636;2023-11-21T00:59:28;22.90;;;22.03;;
79751;SDS011;69234;47.446;21.636;2023-11-21T00:59:59;23.20;;;22.30;;
79751;SDS011;69234;47.446;21.636;2023-11-21T01:00:31;22.57;;;21.93;;
79751;SDS011;69234;47.446;21.636;2023-11-21T01:01:02;22.43;;;22.07;;
79751;SDS011;69234;47.446;21.636;2023-11-21T01:01:33;22.07;;;21.77;;
79751;SDS011;69234;47.446;21.636;2023-11-21T01:02:04;21.83;;;21.53;;
79751;SDS011;69234;47.446;21.636;2023-11-21T01:02:35;21.93;;;21.57;;
79751;SDS011;69234;47.446;21.636;2023-11-21T01:03:06;20.73;;;20.50;;
79751;SDS011;69234;47.446;21.636;2023-11-21T01:03:39;22.07;;;21.60;;
79751;SDS011;69234;47.446;21.636;2023-11-21T01:04:10;21.73;;;21.30;;
79751;SDS011;69234;47.446;21.636;2023-11-21T01:04:41;22.90;;;22.47;;
79751;SDS011;69234;47.446;21.636;2023-11-21T01:05:12;23.27;;;22.80;;
79751;SDS011;69234;47.446;21.636;2023-11-21T01:05:44;22.63;;;22.20;;
79751;SDS011;69234;47.446;21.636;2023-11-21T01:06:16;23.97;;;23.40;;
79751;SDS011;69234;47.446;21.636;2023-11-21T01:06:47;23.57;;;23.00;;
79751;SDS011;69234;47.446;21.636;2023-11-21T01:07:18;23.60;;;22.97;;
79751;SDS011;69234;47.446;21.636;2023-11-21T01:07:50;22.30;;;21.67;;
79751;SDS011;69234;47.446;21.636;2023-11-21T01:08:21;21.17;;;20.57;;
79751;SDS011;69234;47.446;21.636;2023-11-21T01:08:54;20.50;;;20.03;;
79751;SDS011;69234;47.446;21.636;2023-11-21T01:09:25;20.83;;;20.60;;
79751;SDS011;69234;47.446;21.636;2023-11-21T01:09:56;20.57;;;20.20;;
79751;SDS011;69234;47.446;21.636;2023-11-21T01:10:27;20.33;;;19.97;;
79751;SDS011;69234;47.446;21.636;2023-11-21T01:10:58;19.27;;;18.83;;
79751;SDS011;69234;47.446;21.636;2023-11-21T01:11:30;19.77;;;19.27;;
79751;SDS011;69234;47.446;21.636;2023-11-21T01:12:01;19.10;;;18.70;;
79751;SDS011;69234;47.446;21.636;2023-11-21T01:12:34;19.20;;;18.87;;
79751;SDS011;69234;47.446;21.636;2023-11-21T01:13:10;19.43;;;19.30;;
79751;SDS011;69234;47.446;21.636;2023-11-21T01:13:41;19.27;;;19.13;;
79751;SDS011;69234;47.446;21.636;2023-11-21T01:14:12;17.90;;;17.90;;
79751;SDS011;69234;47.446;21.636;2023-11-21T01:14:43;17.33;;;17.23;;
79751;SDS011;69234;47.446;21.636;2023-11-21T01:15:16;17.57;;;17.50;;
79751;SDS011;69234;47.446;21.636;2023-11-21T01:15:47;17.67;;;17.67;;
79751;SDS011;69234;47.446;21.636;2023-11-21T01:16:18;17.43;;;17.30;;
79751;SDS011;69234;47.446;21.636;2023-11-21T01:16:48;16.90;;;16.60;;
79751;SDS011;69234;47.446;21.636;2023-11-21T01:17:19;17.87;;;17.47;;
79751;SDS011;69234;47.446;21.636;2023-11-21T01:17:52;18.73;;;18.27;;
79751;SDS011;69234;47.446;21.636;2023-11-21T01:18:24;18.23;;;17.73;;
79751;SDS011;69234;47.446;21.636;2023-11-21T01:18:56;17.63;;;17.20;;
79751;SDS011;69234;47.446;21.636;2023-11-21T01:19:26;17.90;;;17.50;;
79751;SDS011;69234;47.446;21.636;2023-11-21T01:19:59;18.13;;;17.73;;
79751;SDS011;69234;47.446;21.636;2023-11-21T01:20:30;18.03;;;17.73;;
79751;SDS011;69234;47.446;21.636;2023-11-21T01:21:01;17.70;;;17.57;;
79751;SDS011;69234;47.446;21.636;2023-11-21T01:21:32;17.70;;;17.60;;
79751;SDS011;69234;47.446;21.636;2023-11-21T01:22:04;18.53;;;18.17;;
79751;SDS011;69234;47.446;21.636;2023-11-21T01:22:36;17.93;;;17.57;;
79751;SDS011;69234;47.446;21.636;2023-11-21T01:23:06;18.10;;;17.77;;
79751;SDS011;69234;47.446;21.636;2023-11-21T01:23:37;18.67;;;18.33;;
79751;SDS011;69234;47.446;21.636;2023-11-21T01:24:08;18.13;;;17.83;;
79751;SDS011;69234;47.446;21.636;2023-11-21T01:24:40;17.80;;;17.63;;
79751;SDS011;69234;47.446;21.636;2023-11-21T01:25:11;18.00;;;17.83;;
79751;SDS011;69234;47.446;21.636;2023-11-21T01:25:44;17.77;;;17.57;;
79751;SDS011;69234;47.446;21.636;2023-11-21T01:26:15;16.40;;;16.40;;
79751;SDS011;69234;47.446;21.636;2023-11-21T01:26:46;16.73;;;16.50;;
79751;SDS011;69234;47.446;21.636;2023-11-21T01:27:17;17.13;;;16.77;;
79751;SDS011;69234;47.446;21.636;2023-11-21T01:27:48;17.37;;;17.03;;
79751;SDS011;69234;47.446;21.636;2023-11-21T01:28:19;16.37;;;16.33;;
79751;SDS011;69234;47.446;21.636;2023-11-21T01:28:50;16.30;;;16.23;;
79751;SDS011;69234;47.446;21.636;2023-11-21T01:29:22;16.87;;;16.73;;
79751;SDS011;69234;47.446;21.636;2023-11-21T01:29:53;16.07;;;15.83;;
79751;SDS011;69234;47.446;21.636;2023-11-21T01:30:24;16.43;;;16.27;;
79751;SDS011;69234;47.446;21.636;2023-11-21T01:30:55;17.00;;;16.80;;
79751;SDS011;69234;47.446;21.636;2023-11-21T01:31:26;16.97;;;16.60;;
79751;SDS011;69234;47.446;21.636;2023-11-21T01:31:59;16.70;;;16.33;;
79751;SDS011;69234;47.446;21.636;2023-11-21T01:32:30;15.87;;;15.50;;
79751;SDS011;69234;47.446;21.636;2023-11-21T01:33:01;16.10;;;15.63;;
79751;SDS011;69234;47.446;21.636;2023-11-21T01:33:34;16.47;;;16.00;;
79751;SDS011;69234;47.446;21.636;2023-11-21T01:34:04;15.80;;;15.33;;
79751;SDS011;69234;47.446;21.636;2023-11-21T01:34:36;16.73;;;16.33;;
79751;SDS011;69234;47.446;21.636;2023-11-21T01:35:07;16.97;;;16.67;;
79751;SDS011;69234;47.446;21.636;2023-11-21T01:35:39;15.80;;;15.70;;
79751;SDS011;69234;47.446;21.636;2023-11-21T01:36:10;16.20;;;15.93;;
79751;SDS011;69234;47.446;21.636;2023-11-21T01:36:41;16.47;;;16.17;;
79751;SDS011;69234;47.446;21.636;2023-11-21T01:37:12;16.77;;;16.57;;
79751;SDS011;69234;47.446;21.636;2023-11-21T01:37:44;16.20;;;16.10;;
79751;SDS011;69234;47.446;21.636;2023-11-21T01:38:14;16.27;;;16.27;;
79751;SDS011;69234;47.446;21.636;2023-11-21T01:38:47;16.00;;;16.00;;
79751;SDS011;69234;47.446;21.636;2023-11-21T01:39:18;16.00;;;15.90;;
79751;SDS011;69234;47.446;21.636;2023-11-21T01:39:54;16.23;;;16.00;;
79751;SDS011;69234;47.446;21.636;2023-11-21T01:40:25;16.23;;;16.00;;
79751;SDS011;69234;47.446;21.636;2023-11-21T01:40:56;15.67;;;15.67;;
79751;SDS011;69234;47.446;21.636;2023-11-21T01:41:27;15.90;;;15.90;;
79751;SDS011;69234;47.446;21.636;2023-11-21T01:41:58;16.30;;;16.20;;
79751;SDS011;69234;47.446;21.636;2023-11-21T01:42:29;17.73;;;17.60;;
79751;SDS011;69234;47.446;21.636;2023-11-21T01:43:00;17.50;;;17.47;;
79751;SDS011;69234;47.446;21.636;2023-11-21T01:43:33;16.63;;;16.63;;
79751;SDS011;69234;47.446;21.636;2023-11-21T01:44:04;17.30;;;17.27;;
79751;SDS011;69234;47.446;21.636;2023-11-21T01:44:38;16.33;;;16.27;;
79751;SDS011;69234;47.446;21.636;2023-11-21T01:45:10;16.70;;;16.47;;
79751;SDS011;69234;47.446;21.636;2023-11-21T01:45:42;17.40;;;17.10;;
79751;SDS011;69234;47.446;21.636;2023-11-21T01:46:15;17.10;;;16.90;;
79751;SDS011;69234;47.446;21.636;2023-11-21T01:46:46;17.33;;;17.17;;
79751;SDS011;69234;47.446;21.636;2023-11-21T01:47:18;17.60;;;17.43;;
79751;SDS011;69234;47.446;21.636;2023-11-21T01:47:49;17.53;;;17.23;;
79751;SDS011;69234;47.446;21.636;2023-11-21T01:48:20;17.90;;;17.53;;
79751;SDS011;69234;47.446;21.636;2023-11-21T01:48:52;17.53;;;17.13;;
79751;SDS011;69234;47.446;21.636;2023-11-21T01:49:24;16.87;;;16.47;;
79751;SDS011;69234;47.446;21.636;2023-11-21T01:49:55;18.07;;;17.60;;
79751;SDS011;69234;47.446;21.636;2023-11-21T01:50:26;16.93;;;16.53;;
79751;SDS011;69234;47.446;21.636;2023-11-21T01:50:58;15.77;;;15.47;;
79751;SDS011;69234;47.446;21.636;2023-11-21T01:51:29;17.43;;;17.10;;
79751;SDS011;69234;47.446;21.636;2023-11-21T01:52:01;16.60;;;16.30;;
79751;SDS011;69234;47.446;21.636;2023-11-21T01:52:34;17.67;;;17.40;;
79751;SDS011;69234;47.446;21.636;2023-11-21T01:53:06;17.00;;;16.80;;
79751;SDS011;69234;47.446;21.636;2023-11-21T01:53:37;16.03;;;15.90;;
79751;SDS011;69234;47.446;21.636;2023-11-21T01:54:10;16.00;;;16.00;;
79751;SDS011;69234;47.446;21.636;2023-11-21T01:54:42;15.73;;;15.73;;
79751;SDS011;69234;47.446;21.636;2023-11-21T01:55:13;16.77;;;16.67;;
79751;SDS011;69234;47.446;21.636;2023-11-21T01:55:49;17.00;;;16.70;;
79751;SDS011;69234;47.446;21.636;2023-11-21T01:56:21;17.03;;;16.83;;
79751;SDS011;69234;47.446;21.636;2023-11-21T01:56:52;16.90;;;16.77;;
79751;SDS011;69234;47.446;21.636;2023-11-21T01:57:23;17.60;;;17.40;;
79751;SDS011;69234;47.446;21.636;2023-11-21T01:57:54;17.10;;;16.77;;
79751;SDS011;69234;47.446;21.636;2023-11-21T01:58:27;16.47;;;16.10;;
79751;SDS011;69234;47.446;21.636;2023-11-21T01:58:58;17.13;;;16.73;;
79751;SDS011;69234;47.446;21.636;2023-11-21T01:59:34;17.23;;;16.90;;
79751;SDS011;69234;47.446;21.636;2023-11-21T02:00:07;17.53;;;17.20;;
79751;SDS011;69234;47.446;21.636;2023-11-21T02:00:49;16.47;;;16.30;;
79751;SDS011;69234;47.446;21.636;2023-11-21T02:01:21;16.27;;;16.13;;
79751;SDS011;69234;47.446;21.636;2023-11-21T02:01:52;16.87;;;16.60;;
79751;SDS011;69234;47.446;21.636;2023-11-21T02:02:23;16.37;;;16.07;;
79751;SDS011;69234;47.446;21.636;2023-11-21T02:02:54;16.13;;;15.93;;
79751;SDS011;69234;47.446;21.636;2023-11-21T02:03:26;16.10;;;15.73;;
79751;SDS011;69234;47.446;21.636;2023-11-21T02:03:57;17.03;;;16.63;;
79751;SDS011;69234;47.446;21.636;2023-11-21T02:04:28;18.00;;;17.57;;
79751;SDS011;69234;47.446;21.636;2023-11-21T02:05:00;18.27;;;18.00;;
79751;SDS011;69234;47.446;21.636;2023-11-21T02:05:31;16.93;;;16.77;;
79751;SDS011;69234;47.446;21.636;2023-11-21T02:06:03;15.53;;;15.27;;
79751;SDS011;69234;47.446;21.636;2023-11-21T02:06:35;16.27;;;15.87;;
79751;SDS011;69234;47.446;21.636;2023-11-21T02:07:06;16.40;;;16.00;;
79751;SDS011;69234;47.446;21.636;2023-11-21T02:07:38;16.90;;;16.47;;
79751;SDS011;69234;47.446;21.636;2023-11-21T02:08:10;18.23;;;17.80;;
79751;SDS011;69234;47.446;21.636;2023-11-21T02:08:41;17.57;;;17.23;;
79751;SDS011;69234;47.446;21.636;2023-11-21T02:09:16;18.67;;;18.27;;
79751;SDS011;69234;47.446;21.636;2023-11-21T02:09:47;20.10;;;19.93;;
79751;SDS011;69234;47.446;21.636;2023-11-21T02:10:19;19.33;;;19.10;;
79751;SDS011;69234;47.446;21.636;2023-11-21T02:10:53;21.23;;;20.73;;
79751;SDS011;69234;47.446;21.636;2023-11-21T02:11:24;21.03;;;20.43;;
79751;SDS011;69234;47.446;21.636;2023-11-21T02:11:55;21.20;;;20.53;;
79751;SDS011;69234;47.446;21.636;2023-11-21T02:12:28;21.63;;;21.13;;
79751;SDS011;69234;47.446;21.636;2023-11-21T02:12:59;23.53;;;22.97;;
79751;SDS011;69234;47.446;21.636;2023-11-21T02:13:32;24.37;;;23.70;;
79751;SDS011;69234;47.446;21.636;2023-11-21T02:14:03;23.77;;;22.97;;
79751;SDS011;69234;47.446;21.636;2023-11-21T02:14:37;24.50;;;23.87;;
79751;SDS011;69234;47.446;21.636;2023-11-21T02:15:09;22.10;;;22.00;;
79751;SDS011;69234;47.446;21.636;2023-11-21T02:15:45;23.40;;;23.17;;
79751;SDS011;69234;47.446;21.636;2023-11-21T02:16:17;24.43;;;24.13;;
79751;SDS011;69234;47.446;21.636;2023-11-21T02:16:50;24.47;;;24.10;;
79751;SDS011;69234;47.446;21.636;2023-11-21T02:17:21;24.63;;;24.27;;
79751;SDS011;69234;47.446;21.636;2023-11-21T02:17:52;25.10;;;24.33;;
79751;SDS011;69234;47.446;21.636;2023-11-21T02:18:24;23.73;;;23.00;;
79751;SDS011;69234;47.446;21.636;2023-11-21T02:18:55;23.90;;;23.07;;
79751;SDS011;69234;47.446;21.636;2023-11-21T02:19:27;24.73;;;23.90;;
79751;SDS011;69234;47.446;21.636;2023-11-21T02:19:59;25.07;;;24.20;;
79751;SDS011;69234;47.446;21.636;2023-11-21T02:20:31;23.93;;;23.00;;
79751;SDS011;69234;47.446;21.636;2023-11-21T02:21:05;24.57;;;23.77;;
79751;SDS011;69234;47.446;21.636;2023-11-21T02:21:36;22.67;;;22.47;;
79751;SDS011;69234;47.446;21.636;2023-11-21T02:22:10;21.87;;;21.40;;
79751;SDS011;69234;47.446;21.636;2023-11-21T02:22:42;22.10;;;21.77;;
79751;SDS011;69234;47.446;21.636;2023-11-21T02:23:19;21.30;;;20.83;;
79751;SDS011;69234;47.446;21.636;2023-11-21T02:23:51;21.77;;;21.13;;
79751;SDS011;69234;47.446;21.636;2023-11-21T02:24:22;21.53;;;20.90;;
79751;SDS011;69234;47.446;21.636;2023-11-21T02:24:53;22.13;;;21.50;;
79751;SDS011;69234;47.446;21.636;2023-11-21T02:25:25;22.50;;;21.90;;
79751;SDS011;69234;47.446;21.636;2023-11-21T02:26:03;20.93;;;20.63;;
79751;SDS011;69234;47.446;21.636;2023-11-21T02:26:34;21.10;;;20.97;;
79751;SDS011;69234;47.446;21.636;2023-11-21T02:27:05;19.93;;;19.83;;
79751;SDS011;69234;47.446;21.636;2023-11-21T02:27:36;20.07;;;19.90;;
79751;SDS011;69234;47.446;21.636;2023-11-21T02:28:07;21.53;;;21.00;;
79751;SDS011;69234;47.446;21.636;2023-11-21T02:28:40;20.07;;;19.97;;
79751;SDS011;69234;47.446;21.636;2023-11-21T02:29:11;21.40;;;21.10;;
79751;SDS011;69234;47.446;21.636;2023-11-21T02:29:44;21.73;;;21.27;;
79751;SDS011;69234;47.446;21.636;2023-11-21T02:30:15;22.13;;;21.63;;
79751;SDS011;69234;47.446;21.636;2023-11-21T02:30:46;22.93;;;22.33;;
79751;SDS011;69234;47.446;21.636;2023-11-21T02:31:25;23.93;;;23.20;;
79751;SDS011;69234;47.446;21.636;2023-11-21T02:31:57;23.97;;;23.37;;
79751;SDS011;69234;47.446;21.636;2023-11-21T02:32:28;24.17;;;23.60;;
79751;SDS011;69234;47.446;21.636;2023-11-21T02:33:02;25.57;;;24.73;;
79751;SDS011;69234;47.446;21.636;2023-11-21T02:33:33;24.83;;;23.97;;
79751;SDS011;69234;47.446;21.636;2023-11-21T02:34:04;24.57;;;23.93;;
79751;SDS011;69234;47.446;21.636;2023-11-21T02:34:35;24.27;;;23.73;;
79751;SDS011;69234;47.446;21.636;2023-11-21T02:35:08;23.90;;;23.27;;
79751;SDS011;69234;47.446;21.636;2023-11-21T02:35:39;23.87;;;23.57;;
79751;SDS011;69234;47.446;21.636;2023-11-21T02:36:10;23.50;;;23.10;;
79751;SDS011;69234;47.446;21.636;2023-11-21T02:36:41;23.10;;;22.57;;
79751;SDS011;69234;47.446;21.636;2023-11-21T02:37:13;23.50;;;23.27;;
79751;SDS011;69234;47.446;21.636;2023-11-21T02:37:44;22.80;;;22.80;;
79751;SDS011;69234;47.446;21.636;2023-11-21T02:38:15;22.23;;;22.07;;
79751;SDS011;69234;47.446;21.636;2023-11-21T02:38:46;23.03;;;22.67;;
79751;SDS011;69234;47.446;21.636;2023-11-21T02:39:17;22.73;;;22.03;;
79751;SDS011;69234;47.446;21.636;2023-11-21T02:39:52;21.60;;;21.00;;
79751;SDS011;69234;47.446;21.636;2023-11-21T02:40:23;21.90;;;21.17;;
79751;SDS011;69234;47.446;21.636;2023-11-21T02:40:56;21.37;;;20.90;;
79751;SDS011;69234;47.446;21.636;2023-11-21T02:41:31;20.90;;;20.43;;
79751;SDS011;69234;47.446;21.636;2023-11-21T02:42:02;20.43;;;20.23;;
79751;SDS011;69234;47.446;21.636;2023-11-21T02:42:33;20.10;;;19.73;;
79751;SDS011;69234;47.446;21.636;2023-11-21T02:43:04;20.53;;;20.20;;
79751;SDS011;69234;47.446;21.636;2023-11-21T02:43:36;19.03;;;18.63;;
79751;SDS011;69234;47.446;21.636;2023-11-21T02:44:08;18.43;;;18.00;;
79751;SDS011;69234;47.446;21.636;2023-11-21T02:44:39;18.33;;;17.77;;
79751;SDS011;69234;47.446;21.636;2023-11-21T02:45:11;18.87;;;18.33;;
79751;SDS011;69234;47.446;21.636;2023-11-21T02:45:44;18.83;;;18.30;;
79751;SDS011;69234;47.446;21.636;2023-11-21T02:46:16;17.97;;;17.60;;
79751;SDS011;69234;47.446;21.636;2023-11-21T02:46:47;17.33;;;17.03;;
79751;SDS011;69234;47.446;21.636;2023-11-21T02:47:18;18.40;;;18.13;;
79751;SDS011;69234;47.446;21.636;2023-11-21T02:47:49;17.53;;;17.50;;
79751;SDS011;69234;47.446;21.636;2023-11-21T02:48:20;17.60;;;17.43;;
79751;SDS011;69234;47.446;21.636;2023-11-21T02:48:54;17.57;;;17.30;;
79751;SDS011;69234;47.446;21.636;2023-11-21T02:49:25;17.67;;;17.27;;
79751;SDS011;69234;47.446;21.636;2023-11-21T02:49:58;17.30;;;16.90;;
79751;SDS011;69234;47.446;21.636;2023-11-21T02:50:29;17.00;;;16.87;;
79751;SDS011;69234;47.446;21.636;2023-11-21T02:51:00;17.60;;;17.27;;
79751;SDS011;69234;47.446;21.636;2023-11-21T02:51:31;17.50;;;17.07;;
79751;SDS011;69234;47.446;21.636;2023-11-21T02:52:03;17.47;;;17.33;;
79751;SDS011;69234;47.446;21.636;2023-11-21T02:52:35;16.63;;;16.30;;
79751;SDS011;69234;47.446;21.636;2023-11-21T02:53:06;16.70;;;16.30;;
79751;SDS011;69234;47.446;21.636;2023-11-21T02:53:37;17.57;;;17.17;;
79751;SDS011;69234;47.446;21.636;2023-11-21T02:54:09;16.93;;;16.63;;
79751;SDS011;69234;47.446;21.636;2023-11-21T02:54:40;16.93;;;16.83;;
79751;SDS011;69234;47.446;21.636;2023-11-21T02:55:11;16.60;;;16.60;;
79751;SDS011;69234;47.446;21.636;2023-11-21T02:55:42;16.57;;;16.53;;
79751;SDS011;69234;47.446;21.636;2023-11-21T02:56:13;16.87;;;16.60;;
79751;SDS011;69234;47.446;21.636;2023-11-21T02:56:44;17.10;;;16.77;;
79751;SDS011;69234;47.446;21.636;2023-11-21T02:57:16;17.27;;;16.83;;
79751;SDS011;69234;47.446;21.636;2023-11-21T02:57:47;16.90;;;16.60;;
79751;SDS011;69234;47.446;21.636;2023-11-21T02:58:18;16.17;;;16.07;;
79751;SDS011;69234;47.446;21.636;2023-11-21T02:58:49;16.87;;;16.87;;
79751;SDS011;69234;47.446;21.636;2023-11-21T02:59:20;16.67;;;16.47;;
79751;SDS011;69234;47.446;21.636;2023-11-21T02:59:50;16.70;;;16.33;;
79751;SDS011;69234;47.446;21.636;2023-11-21T03:00:22;17.73;;;17.43;;
79751;SDS011;69234;47.446;21.636;2023-11-21T03:00:54;16.77;;;16.40;;
79751;SDS011;69234;47.446;21.636;2023-11-21T03:01:26;17.00;;;16.67;;
79751;SDS011;69234;47.446;21.636;2023-11-21T03:01:58;17.10;;;16.70;;
79751;SDS011;69234;47.446;21.636;2023-11-21T03:02:28;17.27;;;16.90;;
79751;SDS011;69234;47.446;21.636;2023-11-21T03:02:59;16.50;;;16.30;;